Time;durP1;ratioP1;P1;durP2;ratioP2;P2;SDS_P1;SDS_P2;PMS_P1;PMS_P2;Temp;Humidity;BMP_temperature;BMP_pressure;BME280_temperature;BME280_humidity;BME280_pressure;Samples;Min_cycle;Max_cycle;Signal;HPM_P1;HPM_P2
2021/01/28 00:00:10;;;;;;;30.27;16.17;;;;;;;;;;5017862;28;20748;-73
2021/01/28 00:02:39;;;;;;;29.07;16.00;;;;;;;;;;5019123;28;20529;-73
2021/01/28 00:05:07;;;;;;;26.40;15.60;;;;;;;;;;5017775;28;20631;-73
2021/01/28 00:07:35;;;;;;;27.53;17.10;;;;;;;;;;5017826;28;20485;-73
2021/01/28 00:10:02;;;;;;;29.20;16.13;;;;;;;;;;5036399;28;20455;-73
2021/01/28 00:12:30;;;;;;;25.43;14.43;;;;;;;;;;5037517;28;20523;-73
2021/01/28 00:14:57;;;;;;;22.70;13.50;;;;;;;;;;5037070;28;20522;-73
2021/01/28 00:17:24;;;;;;;30.67;15.07;;;;;;;;;;5037504;28;20754;-73
2021/01/28 00:19:53;;;;;;;30.50;15.60;;;;;;;;;;5032950;28;20454;-73
2021/01/28 00:22:20;;;;;;;32.50;15.40;;;;;;;;;;5037085;28;20521;-73
2021/01/28 00:24:47;;;;;;;22.97;11.57;;;;;;;;;;5036942;28;20458;-73
2021/01/28 00:27:15;;;;;;;27.50;14.83;;;;;;;;;;5036205;28;20492;-73
2021/01/28 00:29:42;;;;;;;29.03;14.93;;;;;;;;;;5037303;28;20735;-73
2021/01/28 00:32:10;;;;;;;23.73;14.47;;;;;;;;;;5031227;28;20865;-73
2021/01/28 00:34:37;;;;;;;25.30;15.40;;;;;;;;;;5036464;28;20454;-74
2021/01/28 00:37:06;;;;;;;27.40;15.73;;;;;;;;;;5036707;28;20561;-73
2021/01/28 00:39:33;;;;;;;28.83;18.30;;;;;;;;;;5037673;28;20467;-73
2021/01/28 00:42:03;;;;;;;29.73;16.43;;;;;;;;;;5037038;28;20536;-73
2021/01/28 00:44:33;;;;;;;24.80;14.23;;;;;;;;;;5036677;28;20540;-72
2021/01/28 00:47:00;;;;;;;24.37;14.57;;;;;;;;;;5036196;28;20493;-73
2021/01/28 00:49:28;;;;;;;27.10;14.53;;;;;;;;;;5032665;28;20473;-73
2021/01/28 00:51:58;;;;;;;28.57;15.00;;;;;;;;;;5017290;28;20592;-72
2021/01/28 00:54:27;;;;;;;31.83;15.30;;;;;;;;;;5017071;28;20461;-72
2021/01/28 00:56:54;;;;;;;28.73;15.80;;;;;;;;;;5017257;28;20858;-72
2021/01/28 00:59:21;;;;;;;30.10;15.47;;;;;;;;;;5016814;28;20456;-72
2021/01/28 01:01:49;;;;;;;28.00;14.77;;;;;;;;;;5016799;28;20484;-72
2021/01/28 01:04:16;;;;;;;22.93;12.67;;;;;;;;;;5016510;28;20463;-72
2021/01/28 01:06:44;;;;;;;30.00;14.37;;;;;;;;;;5018236;28;20496;-72
2021/01/28 01:09:14;;;;;;;25.10;13.83;;;;;;;;;;5020522;28;20892;-73
2021/01/28 01:11:43;;;;;;;23.50;13.53;;;;;;;;;;5020371;28;20454;-72
2021/01/28 01:14:10;;;;;;;26.57;15.07;;;;;;;;;;5020239;28;20468;-72
2021/01/28 01:16:40;;;;;;;28.57;14.67;;;;;;;;;;5020411;28;20481;-72
2021/01/28 01:19:08;;;;;;;25.20;14.77;;;;;;;;;;5020394;28;20542;-73
2021/01/28 01:21:36;;;;;;;24.90;12.90;;;;;;;;;;5020094;28;20630;-73
2021/01/28 01:24:03;;;;;;;27.00;14.40;;;;;;;;;;5020050;28;20864;-73
2021/01/28 01:26:32;;;;;;;23.13;10.50;;;;;;;;;;5028413;28;20565;-73
2021/01/28 01:29:00;;;;;;;20.83;12.20;;;;;;;;;;5040645;28;20467;-73
2021/01/28 01:31:28;;;;;;;27.93;14.67;;;;;;;;;;5040003;28;20528;-73
2021/01/28 01:33:56;;;;;;;20.93;11.63;;;;;;;;;;5039425;28;20762;-72
2021/01/28 01:36:25;;;;;;;20.47;12.90;;;;;;;;;;5039963;28;20459;-73
2021/01/28 01:38:52;;;;;;;22.33;12.47;;;;;;;;;;5031402;28;20756;-72
2021/01/28 01:41:20;;;;;;;22.33;12.00;;;;;;;;;;5039519;28;20550;-72
2021/01/28 01:43:57;;;;;;;23.10;12.97;;;;;;;;;;5039915;28;20479;-72
2021/01/28 01:46:26;;;;;;;25.37;13.00;;;;;;;;;;5039676;28;20492;-73
2021/01/28 01:48:55;;;;;;;18.47;10.80;;;;;;;;;;5031800;28;20545;-73
2021/01/28 01:51:24;;;;;;;21.07;11.40;;;;;;;;;;5038971;28;20458;-73
2021/01/28 01:53:55;;;;;;;27.43;12.97;;;;;;;;;;5038560;28;20489;-73
2021/01/28 01:56:23;;;;;;;23.93;11.27;;;;;;;;;;5039311;28;20511;-73
2021/01/28 01:58:56;;;;;;;24.97;13.33;;;;;;;;;;5039175;28;20470;-72
2021/01/28 02:01:26;;;;;;;17.60;9.77;;;;;;;;;;5039045;28;20459;-73
2021/01/28 02:03:55;;;;;;;18.67;10.40;;;;;;;;;;5039282;28;20456;-73
2021/01/28 02:06:28;;;;;;;23.43;12.40;;;;;;;;;;5038630;28;20488;-73
2021/01/28 02:08:57;;;;;;;20.37;10.37;;;;;;;;;;5039667;28;20535;-73
2021/01/28 02:11:26;;;;;;;15.57;8.67;;;;;;;;;;5038669;28;20480;-72
2021/01/28 02:13:55;;;;;;;17.40;9.20;;;;;;;;;;5038929;28;20552;-74
2021/01/28 02:16:24;;;;;;;19.20;11.60;;;;;;;;;;5038961;28;20456;-72
2021/01/28 02:18:54;;;;;;;19.33;9.33;;;;;;;;;;5038161;28;20486;-73
2021/01/28 02:21:27;;;;;;;13.70;7.83;;;;;;;;;;5038936;28;20745;-73
2021/01/28 02:24:11;;;;;;;16.60;8.20;;;;;;;;;;5038613;28;21455;-73
2021/01/28 02:26:42;;;;;;;12.67;7.60;;;;;;;;;;5028970;28;20478;-71
2021/01/28 02:29:09;;;;;;;12.00;7.33;;;;;;;;;;5020095;28;20461;-73
2021/01/28 02:31:37;;;;;;;12.53;8.63;;;;;;;;;;5037838;28;20901;-73
2021/01/28 02:34:07;;;;;;;15.00;8.20;;;;;;;;;;5038757;28;20467;-72
2021/01/28 02:36:36;;;;;;;13.80;8.13;;;;;;;;;;5039602;28;20459;-73
2021/01/28 02:39:05;;;;;;;16.37;9.77;;;;;;;;;;5038215;28;20465;-72
2021/01/28 02:41:33;;;;;;;14.37;7.53;;;;;;;;;;5038960;28;20453;-72
2021/01/28 02:44:02;;;;;;;17.33;7.67;;;;;;;;;;5037026;28;20805;-72
2021/01/28 02:46:29;;;;;;;12.20;5.50;;;;;;;;;;5036442;28;20494;-72
2021/01/28 02:48:56;;;;;;;16.17;8.20;;;;;;;;;;5038036;28;20455;-72
2021/01/28 02:51:24;;;;;;;17.60;9.07;;;;;;;;;;5034792;28;20472;-73
2021/01/28 02:53:52;;;;;;;17.33;8.40;;;;;;;;;;5018630;28;20472;-73
2021/01/28 02:56:20;;;;;;;15.87;9.83;;;;;;;;;;5019013;28;20463;-72
2021/01/28 02:58:48;;;;;;;16.20;8.40;;;;;;;;;;5033334;28;20752;-72
2021/01/28 03:01:17;;;;;;;18.60;11.20;;;;;;;;;;5038831;28;20471;-72
2021/01/28 03:03:45;;;;;;;15.30;8.40;;;;;;;;;;5038649;28;20460;-72
2021/01/28 03:06:12;;;;;;;20.67;10.20;;;;;;;;;;5038257;28;20517;-72
2021/01/28 03:08:40;;;;;;;14.00;8.70;;;;;;;;;;5024435;28;20468;-72
2021/01/28 03:11:07;;;;;;;13.20;8.87;;;;;;;;;;5018883;28;20462;-72
2021/01/28 03:13:35;;;;;;;16.40;9.30;;;;;;;;;;5018574;28;20485;-72
2021/01/28 03:16:02;;;;;;;17.00;8.97;;;;;;;;;;5029964;28;20469;-72
2021/01/28 03:18:31;;;;;;;15.30;8.23;;;;;;;;;;5033787;28;20464;-72
2021/01/28 03:20:58;;;;;;;11.97;8.63;;;;;;;;;;5058259;28;20574;-72
2021/01/28 03:23:25;;;;;;;13.50;8.47;;;;;;;;;;5022010;28;20452;-72
2021/01/28 03:25:53;;;;;;;13.60;8.40;;;;;;;;;;5018289;28;20509;-72
2021/01/28 03:28:20;;;;;;;15.77;8.20;;;;;;;;;;5018649;28;20497;-72
2021/01/28 03:30:49;;;;;;;12.90;7.67;;;;;;;;;;5017653;28;20475;-73
2021/01/28 03:33:20;;;;;;;13.50;8.27;;;;;;;;;;5018307;28;20460;-73
2021/01/28 03:35:50;;;;;;;13.23;8.03;;;;;;;;;;5018217;28;20512;-72
2021/01/28 03:38:18;;;;;;;13.60;8.93;;;;;;;;;;5018142;28;20521;-72
2021/01/28 03:40:47;;;;;;;12.07;8.17;;;;;;;;;;5018364;28;20464;-72
2021/01/28 03:43:15;;;;;;;14.17;8.17;;;;;;;;;;5034220;28;20455;-72
2021/01/28 03:45:42;;;;;;;15.43;8.00;;;;;;;;;;5037740;28;20459;-72
2021/01/28 03:48:09;;;;;;;9.57;6.50;;;;;;;;;;5037514;28;20543;-72
2021/01/28 03:50:38;;;;;;;14.07;7.50;;;;;;;;;;5037568;28;20463;-72
2021/01/28 03:53:06;;;;;;;12.60;8.30;;;;;;;;;;5037513;28;20459;-72
2021/01/28 03:55:34;;;;;;;12.70;7.23;;;;;;;;;;5037091;28;20458;-72
2021/01/28 03:58:01;;;;;;;13.63;6.97;;;;;;;;;;5037197;28;20463;-72
2021/01/28 04:00:31;;;;;;;11.87;8.47;;;;;;;;;;5037649;28;20465;-72
2021/01/28 04:02:58;;;;;;;16.63;7.47;;;;;;;;;;5024829;28;20483;-72
2021/01/28 04:05:26;;;;;;;10.70;6.83;;;;;;;;;;5036757;28;20470;-72
2021/01/28 04:07:53;;;;;;;11.67;7.90;;;;;;;;;;5018486;28;20479;-72
2021/01/28 04:10:23;;;;;;;14.20;8.10;;;;;;;;;;5020793;28;20487;-72
2021/01/28 04:12:51;;;;;;;16.13;8.10;;;;;;;;;;5025988;28;20474;-73
2021/01/28 04:15:19;;;;;;;15.47;8.33;;;;;;;;;;5036108;28;20535;-73
2021/01/28 04:17:46;;;;;;;13.60;7.43;;;;;;;;;;5037427;28;20472;-73
2021/01/28 04:20:15;;;;;;;12.50;6.60;;;;;;;;;;5035549;28;20456;-72
2021/01/28 04:22:42;;;;;;;13.70;6.90;;;;;;;;;;5017588;28;20467;-73
2021/01/28 04:25:10;;;;;;;14.20;7.13;;;;;;;;;;5026065;28;20454;-73
2021/01/28 04:27:41;;;;;;;19.80;8.00;;;;;;;;;;5036867;28;21020;-73
2021/01/28 04:30:10;;;;;;;13.97;7.67;;;;;;;;;;5020448;28;20463;-73
2021/01/28 04:32:38;;;;;;;20.37;7.97;;;;;;;;;;5021047;28;20764;-71
2021/01/28 04:35:06;;;;;;;16.40;7.77;;;;;;;;;;5027690;28;20451;-73
2021/01/28 04:37:33;;;;;;;14.43;9.60;;;;;;;;;;5035942;28;20497;-73
2021/01/28 04:40:01;;;;;;;14.77;8.47;;;;;;;;;;5035421;28;20872;-73
2021/01/28 04:42:35;;;;;;;14.50;6.87;;;;;;;;;;5040547;28;20461;-73
2021/01/28 04:45:04;;;;;;;13.17;7.03;;;;;;;;;;5034681;28;20527;-73
2021/01/28 04:47:31;;;;;;;15.50;8.00;;;;;;;;;;5021654;28;20480;-73
2021/01/28 04:50:00;;;;;;;12.70;6.77;;;;;;;;;;5021153;28;20452;-73
2021/01/28 04:52:28;;;;;;;12.50;6.70;;;;;;;;;;5021195;28;20486;-74
2021/01/28 04:54:57;;;;;;;15.70;6.90;;;;;;;;;;5039705;28;20466;-73
2021/01/28 04:57:24;;;;;;;12.10;7.50;;;;;;;;;;5027175;28;20916;-73
2021/01/28 04:59:53;;;;;;;12.43;6.50;;;;;;;;;;5030504;28;20525;-73
2021/01/28 05:02:23;;;;;;;12.70;6.47;;;;;;;;;;5040482;28;20455;-73
2021/01/28 05:04:52;;;;;;;14.47;7.17;;;;;;;;;;5024258;28;20468;-73
2021/01/28 05:07:22;;;;;;;12.00;7.13;;;;;;;;;;5033568;28;20478;-73
2021/01/28 05:10:03;;;;;;;12.00;7.63;;;;;;;;;;5040861;28;20862;-73
2021/01/28 05:12:30;;;;;;;16.13;8.27;;;;;;;;;;5040528;28;20863;-73
2021/01/28 05:15:11;;;;;;;13.73;7.40;;;;;;;;;;5028153;28;20505;-73
2021/01/28 05:17:40;;;;;;;12.20;7.40;;;;;;;;;;5020482;28;20478;-73
2021/01/28 05:20:08;;;;;;;14.20;8.03;;;;;;;;;;5020064;28;20456;-73
2021/01/28 05:22:38;;;;;;;15.40;8.03;;;;;;;;;;5026587;28;20561;-73
2021/01/28 05:25:13;;;;;;;15.97;7.00;;;;;;;;;;5040227;28;20840;-73
2021/01/28 05:27:40;;;;;;;16.30;8.50;;;;;;;;;;5024174;28;20479;-73
2021/01/28 05:30:09;;;;;;;15.63;8.67;;;;;;;;;;5020657;28;20462;-73
2021/01/28 05:32:39;;;;;;;15.27;6.90;;;;;;;;;;5019861;28;21030;-73
2021/01/28 05:35:18;;;;;;;16.90;8.63;;;;;;;;;;5022253;28;20709;-73
2021/01/28 05:37:46;;;;;;;14.40;8.63;;;;;;;;;;5039582;28;20542;-73
2021/01/28 05:40:17;;;;;;;18.07;10.03;;;;;;;;;;5039544;28;20466;-73
2021/01/28 05:42:44;;;;;;;14.27;8.00;;;;;;;;;;5025152;28;20471;-73
2021/01/28 05:45:27;;;;;;;15.13;7.70;;;;;;;;;;5020297;28;20456;-73
2021/01/28 05:47:55;;;;;;;15.27;7.47;;;;;;;;;;5019218;28;20494;-73
2021/01/28 05:50:28;;;;;;;16.13;9.53;;;;;;;;;;5019207;28;20922;-73
2021/01/28 05:53:09;;;;;;;14.27;7.87;;;;;;;;;;5019050;28;20560;-73
2021/01/28 05:55:36;;;;;;;14.53;7.93;;;;;;;;;;5019308;28;20697;-73
2021/01/28 05:58:05;;;;;;;15.50;6.87;;;;;;;;;;5019413;28;20478;-73
2021/01/28 06:00:35;;;;;;;12.47;6.37;;;;;;;;;;5018827;28;20521;-73
2021/01/28 06:03:24;;;;;;;16.13;7.47;;;;;;;;;;5018597;28;20479;-73
2021/01/28 06:05:56;;;;;;;14.90;8.77;;;;;;;;;;5018924;28;20492;-73
2021/01/28 06:08:37;;;;;;;11.20;6.10;;;;;;;;;;5019252;28;20492;-73
2021/01/28 06:11:22;;;;;;;14.37;7.07;;;;;;;;;;5019317;28;20562;-73
2021/01/28 06:14:03;;;;;;;13.33;6.47;;;;;;;;;;5017336;28;20509;-72
2021/01/28 06:16:33;;;;;;;11.53;5.40;;;;;;;;;;5018053;28;20881;-72
2021/01/28 06:19:18;;;;;;;15.43;6.33;;;;;;;;;;5018202;28;20897;-72
2021/01/28 06:21:57;;;;;;;11.23;6.00;;;;;;;;;;5017691;28;20448;-72
2021/01/28 06:24:40;;;;;;;12.57;6.77;;;;;;;;;;5018371;28;20567;-73
2021/01/28 06:27:19;;;;;;;9.80;5.43;;;;;;;;;;4986472;28;20487;-73
2021/01/28 06:30:01;;;;;;;11.40;6.23;;;;;;;;;;5018424;28;20564;-73
2021/01/28 06:32:43;;;;;;;12.87;6.70;;;;;;;;;;5018457;28;20579;-73
2021/01/28 06:35:19;;;;;;;15.17;6.90;;;;;;;;;;5005345;28;20549;-73
2021/01/28 06:37:59;;;;;;;11.87;6.93;;;;;;;;;;5017307;28;20471;-72
2021/01/28 06:40:28;;;;;;;10.93;5.90;;;;;;;;;;5017557;28;20466;-73
2021/01/28 06:42:57;;;;;;;13.03;5.70;;;;;;;;;;5010075;28;20459;-73
2021/01/28 06:45:28;;;;;;;9.40;5.50;;;;;;;;;;5017159;28;20459;-73
2021/01/28 06:48:00;;;;;;;14.30;6.70;;;;;;;;;;5036992;28;20495;-72
2021/01/28 06:50:30;;;;;;;11.67;5.67;;;;;;;;;;5036542;28;20467;-72
2021/01/28 06:53:04;;;;;;;10.33;6.20;;;;;;;;;;5033032;28;20465;-72
2021/01/28 06:55:34;;;;;;;11.77;5.57;;;;;;;;;;5037428;28;20452;-74
2021/01/28 06:58:10;;;;;;;10.47;6.30;;;;;;;;;;5036384;28;20466;-73
2021/01/28 07:00:39;;;;;;;9.60;5.97;;;;;;;;;;5026316;28;20753;-73
2021/01/28 07:03:14;;;;;;;10.40;5.13;;;;;;;;;;5036362;28;20557;-74
2021/01/28 07:05:52;;;;;;;11.63;5.70;;;;;;;;;;5036220;28;20956;-73
2021/01/28 07:08:27;;;;;;;11.30;5.23;;;;;;;;;;5036984;28;20537;-73
2021/01/28 07:10:54;;;;;;;13.07;6.43;;;;;;;;;;5037131;28;20458;-73
2021/01/28 07:13:23;;;;;;;12.37;7.00;;;;;;;;;;5037169;28;20929;-73
2021/01/28 07:15:54;;;;;;;12.10;7.53;;;;;;;;;;5036889;28;20454;-73
2021/01/28 07:18:26;;;;;;;13.30;5.80;;;;;;;;;;5036553;28;20470;-73
2021/01/28 07:21:00;;;;;;;10.83;6.40;;;;;;;;;;5035610;28;20501;-73
2021/01/28 07:23:30;;;;;;;10.83;6.40;;;;;;;;;;5036144;28;20463;-73
2021/01/28 07:26:07;;;;;;;12.43;7.00;;;;;;;;;;5036248;28;20532;-73
2021/01/28 07:28:35;;;;;;;10.60;5.77;;;;;;;;;;5035578;28;20520;-73
2021/01/28 07:31:21;;;;;;;12.17;6.40;;;;;;;;;;5036025;28;20488;-73
2021/01/28 07:33:50;;;;;;;9.40;5.50;;;;;;;;;;5036218;28;20442;-73
2021/01/28 07:36:39;;;;;;;13.00;6.23;;;;;;;;;;5036264;28;20458;-73
2021/01/28 07:39:27;;;;;;;9.17;6.17;;;;;;;;;;5036454;28;20467;-73
2021/01/28 07:41:56;;;;;;;8.50;5.27;;;;;;;;;;5036473;28;20492;-73
2021/01/28 07:44:50;;;;;;;10.30;5.70;;;;;;;;;;5035733;28;20462;-74
2021/01/28 07:47:50;;;;;;;10.30;5.70;;;;;;;;;;5037261;28;20482;-73
2021/01/28 07:50:40;;;;;;;9.03;4.60;;;;;;;;;;5036515;28;20462;-73
2021/01/28 07:53:31;;;;;;;11.00;5.90;;;;;;;;;;5035966;28;20986;-73
2021/01/28 07:56:02;;;;;;;17.10;8.80;;;;;;;;;;5013132;28;20474;-73
2021/01/28 08:01:31;;;;;;;14.03;7.07;;;;;;;;;;5023260;28;20562;-75
2021/01/28 08:04:07;;;;;;;10.10;5.97;;;;;;;;;;5033382;28;20565;-74
2021/01/28 08:06:46;;;;;;;11.73;6.93;;;;;;;;;;5037387;28;20562;-74
2021/01/28 08:09:14;;;;;;;10.67;5.43;;;;;;;;;;5036184;28;20466;-73
2021/01/28 08:11:53;;;;;;;9.63;4.90;;;;;;;;;;5035981;28;20458;-73
2021/01/28 08:14:22;;;;;;;13.70;5.90;;;;;;;;;;5034505;28;20526;-72
2021/01/28 08:16:50;;;;;;;13.97;6.70;;;;;;;;;;5033168;28;20477;-74
2021/01/28 08:19:21;;;;;;;11.27;5.93;;;;;;;;;;5034853;28;20890;-73
2021/01/28 08:21:49;;;;;;;12.97;6.30;;;;;;;;;;5035081;28;20496;-73
2021/01/28 08:24:21;;;;;;;12.60;6.83;;;;;;;;;;5019050;28;20884;-73
2021/01/28 08:26:50;;;;;;;13.33;7.20;;;;;;;;;;5016154;28;20515;-73
2021/01/28 08:29:19;;;;;;;18.53;7.30;;;;;;;;;;5016520;28;20526;-73
2021/01/28 08:31:47;;;;;;;14.93;6.63;;;;;;;;;;5015877;28;20543;-73
2021/01/28 08:34:40;;;;;;;11.23;7.30;;;;;;;;;;5018036;28;20456;-74
2021/01/28 08:37:13;;;;;;;10.43;6.33;;;;;;;;;;5015912;28;20502;-75
2021/01/28 08:40:00;;;;;;;10.47;5.60;;;;;;;;;;5015696;28;20464;-73
2021/01/28 08:42:43;;;;;;;11.70;6.67;;;;;;;;;;5015178;28;20740;-73
2021/01/28 08:45:24;;;;;;;9.13;5.80;;;;;;;;;;5016150;28;20475;-73
2021/01/28 08:48:01;;;;;;;12.90;6.80;;;;;;;;;;5015678;28;20945;-74
2021/01/28 08:50:38;;;;;;;9.53;6.00;;;;;;;;;;5015994;28;20475;-73
2021/01/28 08:53:25;;;;;;;11.17;6.47;;;;;;;;;;5017948;28;20910;-75
2021/01/28 08:56:08;;;;;;;13.83;7.73;;;;;;;;;;5035086;28;20466;-73
2021/01/28 08:58:57;;;;;;;14.77;6.90;;;;;;;;;;5035431;28;20497;-72
2021/01/28 09:01:44;;;;;;;15.50;8.53;;;;;;;;;;5035743;28;20451;-74
2021/01/28 09:04:13;;;;;;;11.00;5.93;;;;;;;;;;5033083;28;20456;-73
2021/01/28 09:06:45;;;;;;;12.90;6.47;;;;;;;;;;5037135;28;20460;-75
2021/01/28 09:09:18;;;;;;;9.87;6.43;;;;;;;;;;5022710;28;20470;-73
2021/01/28 09:11:46;;;;;;;9.67;6.73;;;;;;;;;;5020637;28;20462;-73
2021/01/28 09:14:32;;;;;;;12.10;6.53;;;;;;;;;;5015224;28;20476;-73
2021/01/28 09:17:05;;;;;;;9.77;5.63;;;;;;;;;;5016890;28;20463;-74
2021/01/28 09:19:35;;;;;;;10.43;5.73;;;;;;;;;;5023027;28;20744;-73
2021/01/28 09:22:05;;;;;;;11.43;7.50;;;;;;;;;;5035976;28;20512;-72
2021/01/28 09:24:37;;;;;;;13.33;7.17;;;;;;;;;;5037499;28;20463;-75
2021/01/28 09:27:20;;;;;;;13.17;7.07;;;;;;;;;;5037568;28;20494;-74
2021/01/28 09:29:48;;;;;;;12.30;6.53;;;;;;;;;;5039325;28;20470;-74
2021/01/28 09:32:29;;;;;;;13.53;6.90;;;;;;;;;;5040824;28;20464;-74
2021/01/28 09:35:12;;;;;;;11.60;6.37;;;;;;;;;;5038776;28;20540;-74
2021/01/28 09:37:47;;;;;;;11.83;6.50;;;;;;;;;;5033105;28;20470;-72
2021/01/28 09:40:20;;;;;;;10.73;6.50;;;;;;;;;;5026812;28;20463;-74
2021/01/28 09:42:48;;;;;;;11.50;6.77;;;;;;;;;;5018865;28;20677;-73
2021/01/28 09:45:21;;;;;;;13.50;7.30;;;;;;;;;;5018894;28;20746;-74
2021/01/28 09:47:51;;;;;;;12.80;7.70;;;;;;;;;;5022853;28;20493;-73
2021/01/28 09:50:22;;;;;;;10.33;6.43;;;;;;;;;;5027982;28;20500;-75
2021/01/28 09:52:51;;;;;;;10.50;6.50;;;;;;;;;;5019216;28;21055;-74
2021/01/28 09:55:20;;;;;;;12.80;7.97;;;;;;;;;;5018831;28;20460;-75
2021/01/28 09:57:48;;;;;;;13.33;6.70;;;;;;;;;;5018672;28;20540;-74
2021/01/28 10:00:16;;;;;;;14.03;7.70;;;;;;;;;;5018682;28;20461;-74
2021/01/28 10:02:45;;;;;;;13.00;6.73;;;;;;;;;;5018830;28;20733;-74
2021/01/28 10:05:18;;;;;;;12.10;6.77;;;;;;;;;;5024331;28;20788;-74
2021/01/28 10:07:47;;;;;;;11.47;7.07;;;;;;;;;;5026734;28;20498;-74
2021/01/28 10:10:16;;;;;;;12.27;7.17;;;;;;;;;;5032942;28;20464;-74
2021/01/28 10:12:43;;;;;;;13.17;7.83;;;;;;;;;;5038312;28;20532;-73
2021/01/28 10:15:30;;;;;;;13.40;7.73;;;;;;;;;;5022859;28;20539;-73
2021/01/28 10:18:02;;;;;;;11.00;5.90;;;;;;;;;;5043000;28;20474;-74
2021/01/28 10:20:36;;;;;;;11.37;6.10;;;;;;;;;;5035075;28;20475;-74
2021/01/28 10:23:06;;;;;;;13.77;6.50;;;;;;;;;;5018441;28;20600;-73
2021/01/28 10:25:34;;;;;;;11.30;6.50;;;;;;;;;;5023725;28;20461;-73
2021/01/28 10:28:09;;;;;;;12.10;7.83;;;;;;;;;;5031705;28;20498;-74
2021/01/28 10:30:36;;;;;;;12.10;6.50;;;;;;;;;;5019034;28;21294;-72
2021/01/28 10:33:11;;;;;;;9.10;6.13;;;;;;;;;;5019024;28;20471;-74
2021/01/28 10:35:39;;;;;;;8.03;5.17;;;;;;;;;;5030200;28;20892;-73
2021/01/28 10:38:09;;;;;;;10.00;5.03;;;;;;;;;;5035941;28;20920;-74
2021/01/28 10:40:40;;;;;;;7.47;4.80;;;;;;;;;;5037034;28;20452;-74
2021/01/28 10:43:08;;;;;;;6.50;5.13;;;;;;;;;;5036628;28;20957;-74
2021/01/28 10:45:44;;;;;;;8.70;5.43;;;;;;;;;;5036465;28;20456;-73
2021/01/28 10:48:26;;;;;;;;;;;;;;;;;;;;;
2021/01/28 10:51:02;;;;;;;6.47;4.53;;;;;;;;;;5033291;28;20466;-73
2021/01/28 10:53:36;;;;;;;6.37;4.20;;;;;;;;;;5037625;28;20520;-74
2021/01/28 10:56:10;;;;;;;8.87;4.90;;;;;;;;;;5035403;28;20461;-73
2021/01/28 10:58:39;;;;;;;7.73;4.40;;;;;;;;;;5036216;28;20474;-74
2021/01/28 11:01:28;;;;;;;11.60;4.57;;;;;;;;;;5036885;28;21088;-74
2021/01/28 11:03:58;;;;;;;6.17;3.83;;;;;;;;;;5027606;28;20477;-74
2021/01/28 11:06:27;;;;;;;5.90;3.87;;;;;;;;;;5035982;28;20516;-74
2021/01/28 11:08:55;;;;;;;4.80;3.50;;;;;;;;;;5036611;28;20494;-74
2021/01/28 11:11:27;;;;;;;5.37;3.80;;;;;;;;;;5027856;28;20595;-74
2021/01/28 11:13:55;;;;;;;5.23;3.63;;;;;;;;;;5035089;28;20465;-74
2021/01/28 11:16:24;;;;;;;6.20;4.10;;;;;;;;;;5035247;28;20467;-73
2021/01/28 11:18:54;;;;;;;5.83;4.10;;;;;;;;;;5027307;28;20550;-72
2021/01/28 11:21:23;;;;;;;4.97;3.63;;;;;;;;;;5037602;28;20455;-73
2021/01/28 11:23:52;;;;;;;5.40;3.70;;;;;;;;;;5037163;28;20649;-73
2021/01/28 11:26:22;;;;;;;6.47;3.97;;;;;;;;;;5035986;28;20528;-72
2021/01/28 11:29:07;;;;;;;;;;;;;;;;;;;;;
2021/01/28 11:31:36;;;;;;;6.03;3.83;;;;;;;;;;5032903;28;20451;-72
2021/01/28 11:34:04;;;;;;;6.03;3.00;;;;;;;;;;5032603;28;20471;-72
2021/01/28 11:36:37;;;;;;;5.77;3.57;;;;;;;;;;5024413;28;20491;-73
2021/01/28 11:39:05;;;;;;;5.00;3.00;;;;;;;;;;5018211;28;20971;-72
2021/01/28 11:41:36;;;;;;;5.23;3.00;;;;;;;;;;5024544;28;20562;-73
2021/01/28 11:44:03;;;;;;;5.33;3.37;;;;;;;;;;5034487;28;20496;-73
2021/01/28 11:46:31;;;;;;;6.97;3.60;;;;;;;;;;5053948;28;20778;-72
2021/01/28 11:49:01;;;;;;;6.90;3.53;;;;;;;;;;5016273;28;20536;-72
2021/01/28 11:51:29;;;;;;;6.53;4.00;;;;;;;;;;5015549;28;20475;-72
2021/01/28 11:53:56;;;;;;;5.37;3.63;;;;;;;;;;5015689;28;20488;-72
2021/01/28 11:56:25;;;;;;;5.90;4.07;;;;;;;;;;5015177;28;20865;-73
2021/01/28 11:58:53;;;;;;;5.50;3.43;;;;;;;;;;5015971;28;20464;-73
2021/01/28 12:01:20;;;;;;;5.70;3.40;;;;;;;;;;5016254;28;20478;-72
2021/01/28 12:03:47;;;;;;;4.87;3.23;;;;;;;;;;5016318;28;20852;-72
2021/01/28 12:06:15;;;;;;;5.43;3.03;;;;;;;;;;5016069;28;20944;-73
2021/01/28 12:08:47;;;;;;;4.73;3.50;;;;;;;;;;5016809;28;20838;-73
2021/01/28 12:11:14;;;;;;;5.23;3.20;;;;;;;;;;5015760;28;20460;-73
2021/01/28 12:13:43;;;;;;;5.13;2.70;;;;;;;;;;5015710;28;20467;-72
2021/01/28 12:16:10;;;;;;;5.33;3.33;;;;;;;;;;5019585;28;20462;-73
2021/01/28 12:18:38;;;;;;;4.67;2.90;;;;;;;;;;5035947;28;20498;-73
2021/01/28 12:21:05;;;;;;;5.40;3.17;;;;;;;;;;5032111;28;20472;-73
2021/01/28 12:23:33;;;;;;;4.40;3.00;;;;;;;;;;5035662;28;20461;-73
2021/01/28 12:26:00;;;;;;;3.93;2.60;;;;;;;;;;5031506;28;20528;-73
2021/01/28 12:28:28;;;;;;;4.10;2.80;;;;;;;;;;5028038;28;20494;-73
2021/01/28 12:30:57;;;;;;;6.40;3.53;;;;;;;;;;5034874;28;20565;-73
2021/01/28 12:33:24;;;;;;;3.90;2.70;;;;;;;;;;5035620;28;20929;-73
2021/01/28 12:35:53;;;;;;;4.00;2.53;;;;;;;;;;5033662;28;20474;-73
2021/01/28 12:38:20;;;;;;;4.97;2.40;;;;;;;;;;5015082;28;20476;-73
2021/01/28 12:40:51;;;;;;;4.37;3.20;;;;;;;;;;5034940;28;20463;-72
2021/01/28 12:43:19;;;;;;;4.33;3.00;;;;;;;;;;5023751;28;20525;-72
2021/01/28 12:45:46;;;;;;;3.90;2.57;;;;;;;;;;5015582;28;20475;-73
2021/01/28 12:51:18;;;;;;;4.53;2.70;;;;;;;;;;5014872;28;20489;-73
2021/01/28 12:53:45;;;;;;;6.13;2.60;;;;;;;;;;5021364;28;20474;-73
2021/01/28 12:56:13;;;;;;;5.70;3.10;;;;;;;;;;5026142;28;20478;-73
2021/01/28 12:58:40;;;;;;;4.27;2.50;;;;;;;;;;5025275;28;20474;-73
2021/01/28 13:01:21;;;;;;;4.17;2.70;;;;;;;;;;5026673;28;20475;-73
2021/01/28 13:04:01;;;;;;;4.00;2.50;;;;;;;;;;5033472;28;20521;-73
2021/01/28 13:06:30;;;;;;;4.20;2.37;;;;;;;;;;5026122;28;20477;-73
2021/01/28 13:08:58;;;;;;;4.07;2.87;;;;;;;;;;5020772;28;20490;-73
2021/01/28 13:11:30;;;;;;;4.17;2.90;;;;;;;;;;5019301;28;20470;-73
2021/01/28 13:13:57;;;;;;;4.50;2.60;;;;;;;;;;5014535;28;20461;-74
2021/01/28 13:16:25;;;;;;;5.07;2.73;;;;;;;;;;5023223;28;20462;-74
2021/01/28 13:18:52;;;;;;;5.10;2.47;;;;;;;;;;5039321;28;20456;-73
2021/01/28 13:21:22;;;;;;;3.23;2.33;;;;;;;;;;5037149;28;20467;-73
2021/01/28 13:23:50;;;;;;;4.80;2.60;;;;;;;;;;5038081;28;20468;-73
2021/01/28 13:26:19;;;;;;;5.03;2.47;;;;;;;;;;5038626;28;20899;-73
2021/01/28 13:28:50;;;;;;;4.93;2.90;;;;;;;;;;5039086;28;20562;-74
2021/01/28 13:31:17;;;;;;;6.37;2.83;;;;;;;;;;5038361;28;20548;-73
2021/01/28 13:33:44;;;;;;;6.77;2.90;;;;;;;;;;5038012;28;20478;-73
2021/01/28 13:36:38;;;;;;;4.93;1.93;;;;;;;;;;5037077;28;20470;-73
2021/01/28 13:39:06;;;;;;;4.10;2.37;;;;;;;;;;5031022;28;20766;-72
2021/01/28 13:41:35;;;;;;;3.57;2.30;;;;;;;;;;5017938;28;20564;-74
2021/01/28 13:44:04;;;;;;;4.30;2.47;;;;;;;;;;5018638;28;20458;-74
2021/01/28 13:46:38;;;;;;;4.93;2.90;;;;;;;;;;5018937;28;20455;-73
2021/01/28 13:49:05;;;;;;;5.40;2.87;;;;;;;;;;5019215;28;20522;-73
2021/01/28 13:51:32;;;;;;;3.20;2.40;;;;;;;;;;5027175;28;20456;-73
2021/01/28 13:54:00;;;;;;;3.30;2.30;;;;;;;;;;5038650;28;20477;-73
2021/01/28 13:56:28;;;;;;;4.77;3.73;;;;;;;;;;5038494;28;20515;-73
2021/01/28 13:58:55;;;;;;;4.00;2.90;;;;;;;;;;5038548;28;20847;-74
2021/01/28 14:01:23;;;;;;;4.07;2.37;;;;;;;;;;5039058;28;20454;-73
2021/01/28 14:03:50;;;;;;;4.00;1.77;;;;;;;;;;5037856;28;20467;-73
2021/01/28 14:06:17;;;;;;;3.17;1.60;;;;;;;;;;5039066;28;20461;-73
2021/01/28 14:11:51;;;;;;;3.17;2.40;;;;;;;;;;4941536;29;20572;-72
2021/01/28 14:14:33;;;;;;;2.50;1.60;;;;;;;;;;5016812;28;20841;-74
2021/01/28 14:17:01;;;;;;;3.97;2.17;;;;;;;;;;5017704;28;20519;-74
2021/01/28 14:19:29;;;;;;;2.87;1.53;;;;;;;;;;5018882;28;20467;-74
2021/01/28 14:21:56;;;;;;;7.93;2.37;;;;;;;;;;5031242;28;20456;-74
2021/01/28 14:24:27;;;;;;;2.67;1.63;;;;;;;;;;5036979;28;20489;-74
2021/01/28 14:27:00;;;;;;;3.47;2.03;;;;;;;;;;5030696;28;20481;-74
2021/01/28 14:30:02;;;;;;;3.20;1.53;;;;;;;;;;5036251;28;20875;-73
2021/01/28 14:32:33;;;;;;;4.10;2.20;;;;;;;;;;5030389;28;21271;-74
2021/01/28 14:35:02;;;;;;;4.57;1.47;;;;;;;;;;5017736;28;20526;-73
2021/01/28 14:37:44;;;;;;;2.73;1.73;;;;;;;;;;5040597;28;20771;-73
2021/01/28 14:40:13;;;;;;;2.90;1.67;;;;;;;;;;5057476;28;20453;-73
2021/01/28 14:42:42;;;;;;;4.10;1.60;;;;;;;;;;5058708;28;20450;-73
2021/01/28 14:45:10;;;;;;;3.70;1.40;;;;;;;;;;5058192;28;20972;-74
2021/01/28 14:47:47;;;;;;;4.77;1.90;;;;;;;;;;5057868;28;20533;-74
2021/01/28 14:50:28;;;;;;;4.30;2.03;;;;;;;;;;5034230;28;20569;-75
2021/01/28 14:55:39;;;;;;;4.60;1.50;;;;;;;;;;5034842;28;20458;-72
2021/01/28 14:58:08;;;;;;;5.43;2.03;;;;;;;;;;5037110;28;20466;-73
2021/01/28 15:00:39;;;;;;;2.77;1.73;;;;;;;;;;5024355;28;20455;-74
2021/01/28 15:03:13;;;;;;;5.83;2.53;;;;;;;;;;5021221;28;20456;-73
2021/01/28 15:05:44;;;;;;;2.63;1.20;;;;;;;;;;5036938;28;20565;-72
2021/01/28 15:08:20;;;;;;;2.93;1.20;;;;;;;;;;5038936;28;20485;-72